BAW76MK EGLL-LIRF
Flight info
| Callsign | BAW76MK |
|---|---|
| Flight time | N/A |
| Altitude | 37000 |
| Route | MODMI M185 MID L612 BOGNA UL612 OGULO DCT OKASI DCT OKEKO DCT MOU DCT MADIV DCT MOKIP DCT TUFTA DCT KOGAS DCT MEDAM DCT NITAM DCT MOGBO DCT ELB/N0470F380 DCT ELKAP |
| Aircraft | L101/H-SDFGHIRWXY/S |
Departure
| Time | 2026-05-05 18:56 |
|---|---|
| Airport | London Heathrow Airport (EGLL) |
Arrival
| Time | N/A |
|---|---|
| Airport | Rome–Fiumicino Leonardo da Vinci International Airport (LIRF) |
| Time | Latitude | Longitude | Altitude | Speed | Heading |
|---|---|---|---|---|---|
| 2026-05-05 18:19 | 51.46984 | -0.47734 | 95 ft | 0 kts | 89° |
| 2026-05-05 18:46 | 51.46984 | -0.47765 | 94 ft | 4 kts | 89° |
| 2026-05-05 18:46 | 51.46984 | -0.47802 | 92 ft | 2 kts | 89° |
| 2026-05-05 18:47 | 51.46985 | -0.47836 | 92 ft | 4 kts | 111° |
| 2026-05-05 18:47 | 51.46998 | -0.47865 | 93 ft | 4 kts | 160° |
| 2026-05-05 18:47 | 51.47020 | -0.47869 | 91 ft | 4 kts | 179° |
| 2026-05-05 18:47 | 51.47033 | -0.47869 | 92 ft | 0 kts | 179° |
| 2026-05-05 18:50 | 51.47014 | -0.47868 | 91 ft | 4 kts | 178° |
| 2026-05-05 18:51 | 51.46976 | -0.47866 | 92 ft | 8 kts | 179° |
| 2026-05-05 18:51 | 51.46907 | -0.47867 | 94 ft | 12 kts | 181° |
| 2026-05-05 18:51 | 51.46808 | -0.47869 | 91 ft | 16 kts | 181° |
| 2026-05-05 18:51 | 51.46741 | -0.47989 | 92 ft | 17 kts | 267° |
| 2026-05-05 18:52 | 51.46740 | -0.48044 | 91 ft | 2 kts | 268° |
| 2026-05-05 18:52 | 51.46740 | -0.48067 | 93 ft | 0 kts | 268° |
| 2026-05-05 18:52 | 51.46740 | -0.48069 | 93 ft | 1 kts | 268° |
| 2026-05-05 18:53 | 51.46739 | -0.48111 | 92 ft | 6 kts | 268° |
| 2026-05-05 18:53 | 51.46737 | -0.48206 | 93 ft | 10 kts | 269° |
| 2026-05-05 18:53 | 51.46739 | -0.48345 | 91 ft | 14 kts | 272° |
| 2026-05-05 18:53 | 51.46744 | -0.48525 | 91 ft | 18 kts | 271° |
| 2026-05-05 18:54 | 51.46731 | -0.48709 | 93 ft | 15 kts | 232° |
| 2026-05-05 18:54 | 51.46623 | -0.48755 | 94 ft | 14 kts | 196° |
| 2026-05-05 18:54 | 51.46604 | -0.48765 | 94 ft | 2 kts | 197° |
| 2026-05-05 18:54 | 51.46603 | -0.48765 | 94 ft | 0 kts | 197° |
| 2026-05-05 18:55 | 51.46590 | -0.48771 | 91 ft | 4 kts | 195° |
| 2026-05-05 18:55 | 51.46547 | -0.48782 | 94 ft | 8 kts | 182° |
| 2026-05-05 18:55 | 51.46490 | -0.48738 | 91 ft | 11 kts | 126° |
| 2026-05-05 18:55 | 51.46480 | -0.48585 | 91 ft | 26 kts | 90° |
| 2026-05-05 18:56 | 51.46482 | -0.47986 | 93 ft | 83 kts | 88° |
| 2026-05-05 18:56 | 51.46485 | -0.46570 | 103 ft | 169 kts | 89° |
| 2026-05-05 18:56 | 51.46455 | -0.44517 | 992 ft | 190 kts | 90° |
| 2026-05-05 18:56 | 51.46382 | -0.42405 | 2470 ft | 186 kts | 92° |
| 2026-05-05 18:57 | 51.46234 | -0.40425 | 3840 ft | 174 kts | 101° |
| 2026-05-05 18:57 | 51.45638 | -0.38694 | 4737 ft | 188 kts | 124° |
| 2026-05-05 18:57 | 51.44570 | -0.37185 | 5133 ft | 228 kts | 148° |
| 2026-05-05 18:57 | 51.42947 | -0.36324 | 5427 ft | 262 kts | 167° |
| 2026-05-05 18:58 | 51.41067 | -0.35965 | 5739 ft | 279 kts | 178° |
| 2026-05-05 18:58 | 51.39134 | -0.36288 | 5843 ft | 279 kts | 192° |
| 2026-05-05 18:58 | 51.37286 | -0.37268 | 6039 ft | 280 kts | 203° |
| 2026-05-05 18:58 | 51.35529 | -0.38617 | 6193 ft | 281 kts | 208° |
| 2026-05-05 18:59 | 51.33815 | -0.40105 | 6404 ft | 280 kts | 210° |
| 2026-05-05 18:59 | 51.32098 | -0.41600 | 6545 ft | 281 kts | 209° |
| 2026-05-05 18:59 | 51.30360 | -0.43057 | 6652 ft | 283 kts | 208° |
| 2026-05-05 18:59 | 51.28595 | -0.44484 | 6723 ft | 285 kts | 207° |
| 2026-05-05 19:00 | 51.26842 | -0.45880 | 6920 ft | 284 kts | 207° |
| 2026-05-05 19:00 | 51.25066 | -0.47293 | 7124 ft | 285 kts | 207° |
| 2026-05-05 19:00 | 51.23279 | -0.48704 | 7354 ft | 286 kts | 207° |
| 2026-05-05 19:00 | 51.21490 | -0.50099 | 7569 ft | 287 kts | 207° |
| 2026-05-05 19:01 | 51.19690 | -0.51497 | 7832 ft | 287 kts | 207° |
| 2026-05-05 19:01 | 51.17890 | -0.52897 | 8090 ft | 288 kts | 207° |
| 2026-05-05 19:01 | 51.16087 | -0.54298 | 8327 ft | 289 kts | 207° |
| 2026-05-05 19:01 | 51.14269 | -0.55696 | 8566 ft | 290 kts | 206° |
| 2026-05-05 19:02 | 51.12423 | -0.56879 | 8742 ft | 292 kts | 193° |
| 2026-05-05 19:02 | 51.10399 | -0.57017 | 8883 ft | 292 kts | 171° |
| 2026-05-05 19:02 | 51.08461 | -0.56068 | 9004 ft | 291 kts | 155° |
| 2026-05-05 19:02 | 51.06668 | -0.54549 | 9174 ft | 293 kts | 148° |
| 2026-05-05 19:03 | 51.04947 | -0.52791 | 9332 ft | 294 kts | 145° |
| 2026-05-05 19:03 | 51.03253 | -0.50962 | 9503 ft | 295 kts | 145° |
| 2026-05-05 19:03 | 51.01551 | -0.49132 | 9695 ft | 296 kts | 146° |
| 2026-05-05 19:03 | 50.99829 | -0.47332 | 9881 ft | 296 kts | 146° |
| 2026-05-05 19:04 | 50.98107 | -0.45588 | 10058 ft | 298 kts | 147° |
| 2026-05-05 19:04 | 50.96343 | -0.43848 | 10161 ft | 299 kts | 148° |
| 2026-05-05 19:04 | 50.94472 | -0.42038 | 10360 ft | 331 kts | 148° |
| 2026-05-05 19:04 | 50.92392 | -0.40051 | 10485 ft | 366 kts | 148° |
| 2026-05-05 19:05 | 50.90109 | -0.37888 | 10693 ft | 395 kts | 149° |
| 2026-05-05 19:05 | 50.87712 | -0.35634 | 11501 ft | 402 kts | 149° |
| 2026-05-05 19:05 | 50.85328 | -0.33403 | 13029 ft | 388 kts | 148° |
| 2026-05-05 19:05 | 50.83028 | -0.31262 | 14541 ft | 382 kts | 148° |
| 2026-05-05 19:06 | 50.80744 | -0.29135 | 15371 ft | 393 kts | 148° |
| 2026-05-05 19:06 | 50.78322 | -0.26871 | 15725 ft | 416 kts | 148° |
| 2026-05-05 19:06 | 50.75798 | -0.24508 | 16576 ft | 423 kts | 148° |
| 2026-05-05 19:06 | 50.73286 | -0.22159 | 18158 ft | 414 kts | 148° |
| 2026-05-05 19:07 | 50.70801 | -0.19842 | 19250 ft | 418 kts | 148° |
| 2026-05-05 19:07 | 50.68249 | -0.17464 | 19735 ft | 437 kts | 149° |
| 2026-05-05 19:07 | 50.65606 | -0.15006 | 20650 ft | 441 kts | 149° |
| 2026-05-05 19:07 | 50.62975 | -0.12567 | 21922 ft | 439 kts | 149° |
| 2026-05-05 19:08 | 50.60308 | -0.10096 | 22575 ft | 452 kts | 149° |
| 2026-05-05 19:08 | 50.57588 | -0.07579 | 23541 ft | 454 kts | 149° |
| 2026-05-05 19:08 | 50.54842 | -0.05040 | 24289 ft | 459 kts | 149° |
| 2026-05-05 19:08 | 50.52080 | -0.02489 | 25129 ft | 461 kts | 149° |
| 2026-05-05 19:09 | 50.49304 | 0.00071 | 25931 ft | 464 kts | 149° |
| 2026-05-05 19:09 | 50.46514 | 0.02637 | 26782 ft | 465 kts | 149° |
| 2026-05-05 19:09 | 50.43711 | 0.05212 | 27514 ft | 468 kts | 149° |
| 2026-05-05 19:09 | 50.40881 | 0.07809 | 28267 ft | 471 kts | 149° |
| 2026-05-05 19:10 | 50.38077 | 0.10377 | 28982 ft | 474 kts | 149° |
| 2026-05-05 19:10 | 50.35234 | 0.12977 | 29937 ft | 471 kts | 149° |
| 2026-05-05 19:10 | 50.32424 | 0.15547 | 30854 ft | 466 kts | 149° |
| 2026-05-05 19:10 | 50.29645 | 0.18088 | 31817 ft | 461 kts | 149° |
| 2026-05-05 19:11 | 50.26870 | 0.20620 | 32620 ft | 459 kts | 149° |
| 2026-05-05 19:11 | 50.24122 | 0.23123 | 33437 ft | 456 kts | 149° |
| 2026-05-05 19:11 | 50.21384 | 0.25613 | 34163 ft | 454 kts | 149° |
| 2026-05-05 19:11 | 50.18662 | 0.28120 | 34674 ft | 455 kts | 148° |
| 2026-05-05 19:12 | 50.15973 | 0.30745 | 35182 ft | 456 kts | 147° |
| 2026-05-05 19:12 | 50.13320 | 0.33462 | 35670 ft | 457 kts | 146° |
| 2026-05-05 19:12 | 50.10686 | 0.36241 | 36228 ft | 457 kts | 146° |
| 2026-05-05 19:12 | 50.08065 | 0.39051 | 36605 ft | 461 kts | 146° |
| 2026-05-05 19:13 | 50.05440 | 0.41855 | 36792 ft | 465 kts | 146° |
| 2026-05-05 19:13 | 50.02753 | 0.44681 | 36867 ft | 467 kts | 147° |
| 2026-05-05 19:13 | 49.97339 | 0.50250 | 36892 ft | 463 kts | 148° |
| 2026-05-05 19:14 | 49.91939 | 0.55685 | 36884 ft | 461 kts | 148° |
| 2026-05-05 19:14 | 49.86540 | 0.61091 | 36885 ft | 464 kts | 147° |
| 2026-05-05 19:15 | 49.81274 | 0.66887 | 36877 ft | 464 kts | 142° |
| 2026-05-05 19:15 | 49.76302 | 0.73272 | 36869 ft | 464 kts | 140° |
| 2026-05-05 19:16 | 49.71430 | 0.79764 | 36878 ft | 465 kts | 140° |
| 2026-05-05 19:16 | 49.66472 | 0.86188 | 36871 ft | 464 kts | 141° |
| 2026-05-05 19:17 | 49.61439 | 0.92494 | 36870 ft | 466 kts | 142° |
| 2026-05-05 19:17 | 49.56369 | 0.98746 | 36874 ft | 466 kts | 142° |
| 2026-05-05 19:18 | 49.51317 | 1.04967 | 36854 ft | 466 kts | 142° |
| 2026-05-05 19:18 | 49.46261 | 1.11212 | 36849 ft | 466 kts | 142° |
| 2026-05-05 19:19 | 49.41203 | 1.17464 | 36848 ft | 466 kts | 142° |
| 2026-05-05 19:19 | 49.36148 | 1.23698 | 36853 ft | 466 kts | 142° |
| 2026-05-05 19:20 | 49.31120 | 1.29876 | 36849 ft | 466 kts | 142° |
| 2026-05-05 19:20 | 49.26056 | 1.36077 | 36847 ft | 466 kts | 142° |
| 2026-05-05 19:21 | 49.20989 | 1.42266 | 36858 ft | 465 kts | 142° |
| 2026-05-05 19:21 | 49.15924 | 1.48434 | 36845 ft | 465 kts | 142° |
| 2026-05-05 19:22 | 49.10858 | 1.54590 | 36842 ft | 465 kts | 142° |
| 2026-05-05 19:22 | 49.05815 | 1.60700 | 36839 ft | 465 kts | 142° |
| 2026-05-05 19:23 | 49.00735 | 1.66838 | 36841 ft | 466 kts | 142° |
| 2026-05-05 19:23 | 48.95647 | 1.72970 | 36836 ft | 466 kts | 142° |
| 2026-05-05 19:24 | 48.90550 | 1.79096 | 36828 ft | 467 kts | 142° |
| 2026-05-05 19:24 | 48.85452 | 1.85208 | 36843 ft | 466 kts | 142° |
| 2026-05-05 19:25 | 48.80387 | 1.91264 | 36818 ft | 466 kts | 142° |
| 2026-05-05 19:25 | 48.75284 | 1.97348 | 36815 ft | 466 kts | 142° |
| 2026-05-05 19:26 | 48.70186 | 2.03410 | 36817 ft | 466 kts | 142° |
| 2026-05-05 19:26 | 48.65080 | 2.09467 | 36837 ft | 466 kts | 142° |
| 2026-05-05 19:27 | 48.59967 | 2.15516 | 36836 ft | 466 kts | 142° |
| 2026-05-05 19:27 | 48.54898 | 2.21662 | 36827 ft | 468 kts | 139° |
| 2026-05-05 19:28 | 48.50979 | 2.27303 | 36814 ft | 469 kts | 135° |
| 2026-05-05 19:28 | 48.45775 | 2.35638 | 36813 ft | 469 kts | 134° |
| 2026-05-05 19:29 | 48.42027 | 2.41651 | 36827 ft | 469 kts | 134° |
| 2026-05-05 19:29 | 48.37498 | 2.48645 | 36824 ft | 471 kts | 136° |
| 2026-05-05 19:30 | 48.32849 | 2.55604 | 36822 ft | 471 kts | 136° |
| 2026-05-05 19:30 | 48.28124 | 2.62438 | 36793 ft | 471 kts | 142° |
| 2026-05-05 19:31 | 48.22621 | 2.67700 | 36820 ft | 469 kts | 155° |
| 2026-05-05 19:31 | 48.16662 | 2.71712 | 36823 ft | 469 kts | 157° |
| 2026-05-05 19:32 | 48.10758 | 2.75768 | 36820 ft | 470 kts | 155° |
| 2026-05-05 19:32 | 48.04880 | 2.80094 | 36820 ft | 470 kts | 156° |
| 2026-05-05 19:33 | 47.98894 | 2.84042 | 36827 ft | 470 kts | 158° |
| 2026-05-05 19:33 | 47.92849 | 2.87750 | 36821 ft | 469 kts | 159° |
| 2026-05-05 19:34 | 47.86805 | 2.91439 | 36823 ft | 469 kts | 159° |
| 2026-05-05 19:35 | 47.77769 | 2.97096 | 36820 ft | 469 kts | 158° |
| 2026-05-05 19:35 | 47.71760 | 3.00904 | 36831 ft | 468 kts | 158° |
| 2026-05-05 19:36 | 47.65793 | 3.04667 | 36838 ft | 469 kts | 158° |
| 2026-05-05 19:36 | 47.59779 | 3.08436 | 36834 ft | 469 kts | 159° |
| 2026-05-05 19:37 | 47.53764 | 3.12195 | 36841 ft | 469 kts | 159° |
| 2026-05-05 19:37 | 47.47742 | 3.15947 | 36849 ft | 469 kts | 159° |
| 2026-05-05 19:38 | 47.41756 | 3.19666 | 36842 ft | 470 kts | 159° |
| 2026-05-05 19:38 | 47.35730 | 3.23400 | 36850 ft | 469 kts | 159° |
| 2026-05-05 19:39 | 47.29697 | 3.27130 | 36843 ft | 470 kts | 159° |
| 2026-05-05 19:39 | 47.23670 | 3.30846 | 36835 ft | 470 kts | 159° |
| 2026-05-05 19:40 | 47.17641 | 3.34555 | 36848 ft | 469 kts | 159° |
| 2026-05-05 19:40 | 47.11606 | 3.38257 | 36848 ft | 469 kts | 159° |
| 2026-05-05 19:41 | 47.05592 | 3.41938 | 36850 ft | 468 kts | 159° |
| 2026-05-05 19:41 | 46.99610 | 3.45591 | 36854 ft | 468 kts | 159° |
| 2026-05-05 19:42 | 46.93595 | 3.49255 | 36849 ft | 468 kts | 159° |
| 2026-05-05 19:42 | 46.87582 | 3.52910 | 36853 ft | 468 kts | 159° |
| 2026-05-05 19:43 | 46.81600 | 3.56742 | 36841 ft | 470 kts | 152° |
| 2026-05-05 19:43 | 46.76518 | 3.62718 | 36839 ft | 475 kts | 130° |
| 2026-05-05 19:43 | 46.74725 | 3.66773 | 36857 ft | 478 kts | 118° |
| 2026-05-05 19:44 | 46.73466 | 3.71283 | 36865 ft | 482 kts | 109° |
| 2026-05-05 19:44 | 46.71943 | 3.80778 | 36863 ft | 486 kts | 102° |
| 2026-05-05 19:45 | 46.70651 | 3.90466 | 36864 ft | 487 kts | 105° |
| 2026-05-05 19:45 | 46.68964 | 4.00026 | 36862 ft | 485 kts | 109° |
| 2026-05-05 19:46 | 46.66938 | 4.09392 | 36863 ft | 485 kts | 111° |
| 2026-05-05 19:46 | 46.64815 | 4.18666 | 36865 ft | 486 kts | 111° |
| 2026-05-05 19:47 | 46.62720 | 4.28029 | 36864 ft | 486 kts | 110° |
| 2026-05-05 19:47 | 46.60689 | 4.37407 | 36865 ft | 486 kts | 110° |
| 2026-05-05 19:48 | 46.58676 | 4.46805 | 36849 ft | 486 kts | 110° |
| 2026-05-05 19:48 | 46.56652 | 4.56190 | 36861 ft | 487 kts | 110° |
| 2026-05-05 19:49 | 46.54616 | 4.65521 | 36864 ft | 487 kts | 110° |
| 2026-05-05 19:49 | 46.52553 | 4.74890 | 36860 ft | 487 kts | 110° |
| 2026-05-05 19:50 | 46.50482 | 4.84244 | 36844 ft | 487 kts | 110° |
| 2026-05-05 19:50 | 46.48407 | 4.93609 | 36873 ft | 488 kts | 111° |
| 2026-05-05 19:51 | 46.46321 | 5.02982 | 36860 ft | 488 kts | 111° |
| 2026-05-05 19:51 | 46.44246 | 5.12357 | 36864 ft | 489 kts | 110° |
| 2026-05-05 19:52 | 46.42409 | 5.21886 | 36870 ft | 491 kts | 108° |
| 2026-05-05 19:52 | 46.40732 | 5.31499 | 36862 ft | 493 kts | 107° |
| 2026-05-05 19:53 | 46.38935 | 5.41069 | 36853 ft | 490 kts | 115° |
| 2026-05-05 19:53 | 46.35689 | 5.49520 | 36875 ft | 480 kts | 131° |
| 2026-05-05 19:54 | 46.31239 | 5.56667 | 36878 ft | 477 kts | 139° |
| 2026-05-05 19:54 | 46.26496 | 5.63417 | 36877 ft | 477 kts | 139° |
| 2026-05-05 19:55 | 46.21923 | 5.70407 | 36882 ft | 480 kts | 136° |
| 2026-05-05 19:55 | 46.17580 | 5.77661 | 36895 ft | 480 kts | 134° |
| 2026-05-05 19:56 | 46.13297 | 5.85068 | 36900 ft | 480 kts | 134° |
| 2026-05-05 19:56 | 46.09001 | 5.92425 | 36897 ft | 479 kts | 134° |
| 2026-05-05 19:57 | 46.04647 | 5.99733 | 36899 ft | 479 kts | 135° |
| 2026-05-05 19:57 | 46.00308 | 6.06923 | 36896 ft | 478 kts | 136° |
| 2026-05-05 19:58 | 45.95946 | 6.14134 | 36902 ft | 477 kts | 136° |
| 2026-05-05 19:58 | 45.92321 | 6.20123 | 36902 ft | 477 kts | 136° |